sensor_id;sensor_type;location;lat;lon;timestamp;pressure;altitude;pressure_sealevel;temperature;humidity
40708;BME280;26392;42.696;23.350;2023-02-08T00:01:18;96862.84;;;-4.25;100.00
40708;BME280;26392;42.696;23.350;2023-02-08T00:03:43;96871.91;;;-4.28;100.00
40708;BME280;26392;42.696;23.350;2023-02-08T00:06:12;96875.75;;;-4.20;100.00
40708;BME280;26392;42.696;23.350;2023-02-08T00:08:38;96869.25;;;-4.28;100.00
40708;BME280;26392;42.696;23.350;2023-02-08T00:11:05;96873.00;;;-4.30;100.00
40708;BME280;26392;42.696;23.350;2023-02-08T00:13:31;96879.91;;;-4.28;100.00
40708;BME280;26392;42.696;23.350;2023-02-08T00:15:56;96878.09;;;-4.27;100.00
40708;BME280;26392;42.696;23.350;2023-02-08T00:18:22;96854.97;;;-4.27;100.00
40708;BME280;26392;42.696;23.350;2023-02-08T00:20:48;96882.53;;;-4.16;100.00
40708;BME280;26392;42.696;23.350;2023-02-08T00:23:14;96883.00;;;-4.11;100.00
40708;BME280;26392;42.696;23.350;2023-02-08T00:25:40;96897.75;;;-4.07;100.00
40708;BME280;26392;42.696;23.350;2023-02-08T00:28:07;96893.38;;;-3.97;100.00
40708;BME280;26392;42.696;23.350;2023-02-08T00:30:35;96900.25;;;-3.94;100.00
40708;BME280;26392;42.696;23.350;2023-02-08T00:33:01;96900.38;;;-3.96;100.00
40708;BME280;26392;42.696;23.350;2023-02-08T00:35:27;96903.13;;;-3.86;100.00
40708;BME280;26392;42.696;23.350;2023-02-08T00:37:52;96903.72;;;-3.83;100.00
40708;BME280;26392;42.696;23.350;2023-02-08T00:40:18;96904.09;;;-3.87;100.00
40708;BME280;26392;42.696;23.350;2023-02-08T00:42:44;96911.50;;;-3.91;100.00
40708;BME280;26392;42.696;23.350;2023-02-08T00:45:09;96914.63;;;-3.86;100.00
40708;BME280;26392;42.696;23.350;2023-02-08T00:47:35;96920.06;;;-3.87;100.00
40708;BME280;26392;42.696;23.350;2023-02-08T00:50:00;96913.84;;;-3.76;100.00
40708;BME280;26392;42.696;23.350;2023-02-08T00:52:26;96910.13;;;-3.85;100.00
40708;BME280;26392;42.696;23.350;2023-02-08T00:54:52;96915.34;;;-3.84;100.00
40708;BME280;26392;42.696;23.350;2023-02-08T00:57:17;96919.22;;;-3.88;100.00
40708;BME280;26392;42.696;23.350;2023-02-08T00:59:43;96910.91;;;-3.94;100.00
40708;BME280;26392;42.696;23.350;2023-02-08T01:02:08;96920.31;;;-3.90;100.00
40708;BME280;26392;42.696;23.350;2023-02-08T01:04:34;96900.38;;;-3.96;100.00
40708;BME280;26392;42.696;23.350;2023-02-08T01:07:00;96925.53;;;-3.89;100.00
40708;BME280;26392;42.696;23.350;2023-02-08T01:09:25;96914.66;;;-3.97;100.00
40708;BME280;26392;42.696;23.350;2023-02-08T01:11:50;96924.88;;;-3.81;100.00
40708;BME280;26392;42.696;23.350;2023-02-08T01:14:17;96919.94;;;-3.86;100.00
40708;BME280;26392;42.696;23.350;2023-02-08T01:16:42;96923.19;;;-3.82;100.00
40708;BME280;26392;42.696;23.350;2023-02-08T01:19:08;96919.94;;;-3.86;100.00
40708;BME280;26392;42.696;23.350;2023-02-08T01:21:36;96917.06;;;-3.94;100.00
40708;BME280;26392;42.696;23.350;2023-02-08T01:24:02;96919.00;;;-3.96;100.00
40708;BME280;26392;42.696;23.350;2023-02-08T01:26:29;96910.19;;;-3.96;100.00
40708;BME280;26392;42.696;23.350;2023-02-08T01:28:55;96898.94;;;-4.00;100.00
40708;BME280;26392;42.696;23.350;2023-02-08T01:31:23;96900.38;;;-3.96;100.00
40708;BME280;26392;42.696;23.350;2023-02-08T01:33:49;96891.91;;;-4.01;100.00
40708;BME280;26392;42.696;23.350;2023-02-08T01:36:15;96906.19;;;-4.02;100.00
40708;BME280;26392;42.696;23.350;2023-02-08T01:38:42;96912.28;;;-4.11;100.00
40708;BME280;26392;42.696;23.350;2023-02-08T01:41:14;96916.16;;;-4.15;100.00
40708;BME280;26392;42.696;23.350;2023-02-08T01:46:36;96909.97;;;-4.05;100.00
40708;BME280;26392;42.696;23.350;2023-02-08T01:49:07;96911.78;;;-4.05;100.00
40708;BME280;26392;42.696;23.350;2023-02-08T01:51:39;96914.44;;;-4.05;100.00
40708;BME280;26392;42.696;23.350;2023-02-08T01:54:08;96915.75;;;-3.99;100.00
40708;BME280;26392;42.696;23.350;2023-02-08T01:56:38;96923.97;;;-3.91;100.00
40708;BME280;26392;42.696;23.350;2023-02-08T01:59:13;96920.47;;;-3.92;100.00
40708;BME280;26392;42.696;23.350;2023-02-08T02:01:42;96923.97;;;-3.91;100.00
40708;BME280;26392;42.696;23.350;2023-02-08T02:04:10;96926.22;;;-3.87;100.00
40708;BME280;26392;42.696;23.350;2023-02-08T02:06:41;96928.47;;;-3.92;100.00
40708;BME280;26392;42.696;23.350;2023-02-08T02:09:09;96924.44;;;-3.86;100.00
40708;BME280;26392;42.696;23.350;2023-02-08T02:11:36;96933.59;;;-3.79;100.00
40708;BME280;26392;42.696;23.350;2023-02-08T02:14:02;96913.56;;;-3.94;100.00
40708;BME280;26392;42.696;23.350;2023-02-08T02:16:28;96913.66;;;-3.85;100.00
40708;BME280;26392;42.696;23.350;2023-02-08T02:18:53;96938.94;;;-3.79;100.00
40708;BME280;26392;42.696;23.350;2023-02-08T02:35:59;96955.41;;;-4.62;100.00
40708;BME280;26392;42.696;23.350;2023-02-08T02:38:32;96957.59;;;-4.67;100.00
40708;BME280;26392;42.696;23.350;2023-02-08T02:44:15;96959.03;;;-4.86;100.00
40708;BME280;26392;42.696;23.350;2023-02-08T02:46:56;96960.94;;;-4.88;100.00
40708;BME280;26392;42.696;23.350;2023-02-08T02:52:11;96965.44;;;-4.77;100.00
40708;BME280;26392;42.696;23.350;2023-02-08T02:54:49;96963.38;;;-4.74;100.00
40708;BME280;26392;42.696;23.350;2023-02-08T02:57:20;96957.94;;;-4.83;100.00
40708;BME280;26392;42.696;23.350;2023-02-08T02:59:46;96966.50;;;-4.91;100.00
40708;BME280;26392;42.696;23.350;2023-02-08T03:02:12;96962.66;;;-4.87;100.00
40708;BME280;26392;42.696;23.350;2023-02-08T03:20:40;96972.19;;;-5.07;100.00
40708;BME280;26392;42.696;23.350;2023-02-08T03:23:45;96969.75;;;-5.10;100.00
40708;BME280;26392;42.696;23.350;2023-02-08T03:26:40;96972.78;;;-5.14;100.00
40708;BME280;26392;42.696;23.350;2023-02-08T03:32:01;96959.84;;;-5.08;100.00
40708;BME280;26392;42.696;23.350;2023-02-08T03:34:42;96967.06;;;-5.21;100.00
40708;BME280;26392;42.696;23.350;2023-02-08T03:37:15;96967.53;;;-5.27;100.00
40708;BME280;26392;42.696;23.350;2023-02-08T03:39:44;96976.84;;;-5.22;100.00
40708;BME280;26392;42.696;23.350;2023-02-08T03:42:15;96982.59;;;-5.39;100.00
40708;BME280;26392;42.696;23.350;2023-02-08T03:44:49;96954.78;;;-5.46;100.00
40708;BME280;26392;42.696;23.350;2023-02-08T03:47:25;96964.56;;;-5.47;100.00
40708;BME280;26392;42.696;23.350;2023-02-08T03:49:54;96970.97;;;-5.49;100.00
40708;BME280;26392;42.696;23.350;2023-02-08T03:52:22;96972.72;;;-5.61;100.00
40708;BME280;26392;42.696;23.350;2023-02-08T03:54:56;96971.06;;;-5.62;100.00
40708;BME280;26392;42.696;23.350;2023-02-08T03:57:25;96967.28;;;-5.71;100.00
40708;BME280;26392;42.696;23.350;2023-02-08T04:00:00;96981.50;;;-5.72;100.00
40708;BME280;26392;42.696;23.350;2023-02-08T04:02:29;96980.03;;;-5.76;100.00
40708;BME280;26392;42.696;23.350;2023-02-08T04:04:57;96983.66;;;-5.77;100.00
40708;BME280;26392;42.696;23.350;2023-02-08T04:07:24;96996.31;;;-5.80;100.00
40708;BME280;26392;42.696;23.350;2023-02-08T04:09:49;96993.13;;;-5.86;100.00
40708;BME280;26392;42.696;23.350;2023-02-08T04:12:14;96999.41;;;-5.87;100.00
40708;BME280;26392;42.696;23.350;2023-02-08T04:14:40;96984.59;;;-5.78;100.00
40708;BME280;26392;42.696;23.350;2023-02-08T04:17:05;96998.91;;;-5.68;100.00
40708;BME280;26392;42.696;23.350;2023-02-08T04:19:31;96997.03;;;-5.54;100.00
40708;BME280;26392;42.696;23.350;2023-02-08T04:21:56;97008.00;;;-5.59;100.00
40708;BME280;26392;42.696;23.350;2023-02-08T04:24:22;96990.66;;;-5.76;100.00
40708;BME280;26392;42.696;23.350;2023-02-08T04:26:47;96999.25;;;-5.72;100.00
40708;BME280;26392;42.696;23.350;2023-02-08T04:29:13;97007.09;;;-5.71;100.00
40708;BME280;26392;42.696;23.350;2023-02-08T04:31:39;97000.03;;;-5.83;100.00
40708;BME280;26392;42.696;23.350;2023-02-08T04:34:04;96999.09;;;-5.82;100.00
40708;BME280;26392;42.696;23.350;2023-02-08T04:36:30;96997.38;;;-5.83;100.00
40708;BME280;26392;42.696;23.350;2023-02-08T04:38:55;97001.00;;;-5.84;100.00
40708;BME280;26392;42.696;23.350;2023-02-08T04:41:21;97000.97;;;-5.95;100.00
40708;BME280;26392;42.696;23.350;2023-02-08T04:43:46;97000.78;;;-6.05;100.00
40708;BME280;26392;42.696;23.350;2023-02-08T04:46:11;97011.84;;;-6.11;100.00
40708;BME280;26392;42.696;23.350;2023-02-08T04:48:37;97013.09;;;-6.04;100.00
40708;BME280;26392;42.696;23.350;2023-02-08T04:51:02;97015.22;;;-5.96;100.00
40708;BME280;26392;42.696;23.350;2023-02-08T04:53:28;97018.81;;;-5.97;100.00
40708;BME280;26392;42.696;23.350;2023-02-08T04:55:53;97032.22;;;-6.12;100.00
40708;BME280;26392;42.696;23.350;2023-02-08T04:58:19;97038.75;;;-6.41;100.00
40708;BME280;26392;42.696;23.350;2023-02-08T05:00:44;97045.47;;;-6.61;100.00
40708;BME280;26392;42.696;23.350;2023-02-08T05:03:10;97044.75;;;-6.63;100.00
40708;BME280;26392;42.696;23.350;2023-02-08T05:05:35;97053.41;;;-6.61;100.00
40708;BME280;26392;42.696;23.350;2023-02-08T05:08:01;97060.63;;;-6.50;100.00
40708;BME280;26392;42.696;23.350;2023-02-08T05:10:27;97059.47;;;-6.46;100.00
40708;BME280;26392;42.696;23.350;2023-02-08T05:12:52;97064.97;;;-6.37;100.00
40708;BME280;26392;42.696;23.350;2023-02-08T05:15:18;97054.78;;;-6.43;100.00
40708;BME280;26392;42.696;23.350;2023-02-08T05:17:44;97066.34;;;-6.31;100.00
40708;BME280;26392;42.696;23.350;2023-02-08T05:20:10;97066.66;;;-6.23;100.00
40708;BME280;26392;42.696;23.350;2023-02-08T05:22:35;97071.72;;;-6.20;100.00
40708;BME280;26392;42.696;23.350;2023-02-08T05:25:01;97066.94;;;-6.15;100.00
40708;BME280;26392;42.696;23.350;2023-02-08T05:27:26;97064.28;;;-6.15;100.00
40708;BME280;26392;42.696;23.350;2023-02-08T05:29:52;97068.84;;;-6.04;100.00
40708;BME280;26392;42.696;23.350;2023-02-08T05:32:17;97071.00;;;-5.85;100.00
40708;BME280;26392;42.696;23.350;2023-02-08T05:34:43;97071.09;;;-5.87;100.00
40708;BME280;26392;42.696;23.350;2023-02-08T05:37:08;97066.97;;;-5.91;100.00
40708;BME280;26392;42.696;23.350;2023-02-08T05:39:34;97082.91;;;-5.91;100.00
40708;BME280;26392;42.696;23.350;2023-02-08T05:41:59;97081.41;;;-5.82;100.00
40708;BME280;26392;42.696;23.350;2023-02-08T05:44:24;97066.59;;;-5.97;100.00
40708;BME280;26392;42.696;23.350;2023-02-08T05:46:50;97093.19;;;-5.86;100.00
40708;BME280;26392;42.696;23.350;2023-02-08T05:49:15;97092.41;;;-5.75;100.00
40708;BME280;26392;42.696;23.350;2023-02-08T05:51:41;97090.50;;;-5.73;100.00
40708;BME280;26392;42.696;23.350;2023-02-08T05:54:06;97091.25;;;-5.71;100.00
40708;BME280;26392;42.696;23.350;2023-02-08T05:56:31;97089.94;;;-5.66;100.00
40708;BME280;26392;42.696;23.350;2023-02-08T06:01:43;97082.66;;;-5.51;100.00
40708;BME280;26392;42.696;23.350;2023-02-08T06:04:08;97082.59;;;-5.38;100.00
40708;BME280;26392;42.696;23.350;2023-02-08T06:06:33;97078.19;;;-5.26;100.00
40708;BME280;26392;42.696;23.350;2023-02-08T06:08:59;97085.34;;;-5.15;100.00
40708;BME280;26392;42.696;23.350;2023-02-08T06:11:24;97059.47;;;-5.25;100.00
40708;BME280;26392;42.696;23.350;2023-02-08T06:13:49;97082.69;;;-5.15;100.00
40708;BME280;26392;42.696;23.350;2023-02-08T06:16:15;97083.69;;;-5.05;100.00
40708;BME280;26392;42.696;23.350;2023-02-08T06:18:40;97084.53;;;-5.05;100.00
40708;BME280;26392;42.696;23.350;2023-02-08T06:21:06;97093.59;;;-5.07;100.00
40708;BME280;26392;42.696;23.350;2023-02-08T06:23:31;97096.81;;;-5.26;100.00
40708;BME280;26392;42.696;23.350;2023-02-08T06:25:57;97092.72;;;-5.43;100.00
40708;BME280;26392;42.696;23.350;2023-02-08T06:28:23;97095.88;;;-5.38;100.00
40708;BME280;26392;42.696;23.350;2023-02-08T06:30:49;97103.41;;;-5.56;100.00
40708;BME280;26392;42.696;23.350;2023-02-08T06:33:15;97099.78;;;-5.55;100.00
40708;BME280;26392;42.696;23.350;2023-02-08T06:35:44;97103.78;;;-5.49;100.00
40708;BME280;26392;42.696;23.350;2023-02-08T06:38:10;97121.03;;;-5.55;100.00
40708;BME280;26392;42.696;23.350;2023-02-08T06:40:36;97112.56;;;-5.60;100.00
40708;BME280;26392;42.696;23.350;2023-02-08T06:43:01;97121.53;;;-5.74;100.00
40708;BME280;26392;42.696;23.350;2023-02-08T06:45:27;97119.72;;;-5.73;100.00
40708;BME280;26392;42.696;23.350;2023-02-08T06:47:52;97110.00;;;-5.62;100.00
40708;BME280;26392;42.696;23.350;2023-02-08T06:50:18;97114.03;;;-5.56;100.00
40708;BME280;26392;42.696;23.350;2023-02-08T06:52:43;97102.03;;;-5.62;100.00
40708;BME280;26392;42.696;23.350;2023-02-08T06:55:08;97115.31;;;-5.62;100.00
40708;BME280;26392;42.696;23.350;2023-02-08T06:57:34;97132.69;;;-5.45;100.00
40708;BME280;26392;42.696;23.350;2023-02-08T06:59:59;97121.97;;;-5.43;100.00
40708;BME280;26392;42.696;23.350;2023-02-08T07:02:24;97113.13;;;-5.20;100.00
40708;BME280;26392;42.696;23.350;2023-02-08T07:04:50;97112.38;;;-4.98;100.00
40708;BME280;26392;42.696;23.350;2023-02-08T07:07:16;97112.53;;;-4.88;100.00
40708;BME280;26392;42.696;23.350;2023-02-08T07:09:42;97125.19;;;-4.67;100.00
40708;BME280;26392;42.696;23.350;2023-02-08T07:12:08;97125.56;;;-4.61;100.00
40708;BME280;26392;42.696;23.350;2023-02-08T07:14:37;97130.91;;;-4.50;100.00
40708;BME280;26392;42.696;23.350;2023-02-08T07:17:03;97132.53;;;-4.71;100.00
40708;BME280;26392;42.696;23.350;2023-02-08T07:19:28;97132.22;;;-4.90;100.00
40708;BME280;26392;42.696;23.350;2023-02-08T07:21:55;97144.44;;;-4.88;100.00
40708;BME280;26392;42.696;23.350;2023-02-08T07:24:20;97129.72;;;-4.81;100.00
40708;BME280;26392;42.696;23.350;2023-02-08T07:26:46;97146.91;;;-4.74;100.00
40708;BME280;26392;42.696;23.350;2023-02-08T07:29:11;97150.78;;;-4.78;100.00
40708;BME280;26392;42.696;23.350;2023-02-08T07:31:37;97146.56;;;-4.69;100.00
40708;BME280;26392;42.696;23.350;2023-02-08T07:34:02;97141.81;;;-4.77;100.00
40708;BME280;26392;42.696;23.350;2023-02-08T07:36:28;97162.91;;;-4.62;100.00
40708;BME280;26392;42.696;23.350;2023-02-08T07:38:53;97158.88;;;-4.68;100.00
40708;BME280;26392;42.696;23.350;2023-02-08T07:41:19;97148.84;;;-4.29;100.00
40708;BME280;26392;42.696;23.350;2023-02-08T07:43:44;97149.25;;;-4.00;100.00
40708;BME280;26392;42.696;23.350;2023-02-08T07:46:19;97159.91;;;-3.89;100.00
40708;BME280;26392;42.696;23.350;2023-02-08T07:48:45;97151.91;;;-3.77;100.00
40708;BME280;26392;42.696;23.350;2023-02-08T07:51:12;97151.44;;;-3.71;100.00
40708;BME280;26392;42.696;23.350;2023-02-08T07:53:38;97155.91;;;-3.61;100.00
40708;BME280;26392;42.696;23.350;2023-02-08T07:56:04;97153.34;;;-3.62;98.56
40708;BME280;26392;42.696;23.350;2023-02-08T07:58:30;97150.44;;;-3.48;94.75
40708;BME280;26392;42.696;23.350;2023-02-08T08:00:55;97149.06;;;-3.31;91.27
40708;BME280;26392;42.696;23.350;2023-02-08T08:03:21;97149.03;;;-3.20;90.55
40708;BME280;26392;42.696;23.350;2023-02-08T08:05:48;97144.81;;;-3.33;87.65
40708;BME280;26392;42.696;23.350;2023-02-08T08:08:13;97147.00;;;-3.16;87.02
40708;BME280;26392;42.696;23.350;2023-02-08T08:10:39;97136.41;;;-3.06;84.80
40708;BME280;26392;42.696;23.350;2023-02-08T08:13:04;97139.28;;;-2.98;84.07
40708;BME280;26392;42.696;23.350;2023-02-08T08:15:30;97146.44;;;-2.99;83.07
40708;BME280;26392;42.696;23.350;2023-02-08T08:17:55;97145.13;;;-3.04;82.04
40708;BME280;26392;42.696;23.350;2023-02-08T08:20:21;97141.88;;;-3.08;83.84
40708;BME280;26392;42.696;23.350;2023-02-08T08:22:46;97150.69;;;-2.96;81.07
40708;BME280;26392;42.696;23.350;2023-02-08T08:25:12;97158.69;;;-2.96;81.35
40708;BME280;26392;42.696;23.350;2023-02-08T08:27:38;97155.00;;;-2.84;81.86
40708;BME280;26392;42.696;23.350;2023-02-08T08:30:12;97155.84;;;-2.83;79.46
40708;BME280;26392;42.696;23.350;2023-02-08T08:32:38;97153.91;;;-2.81;77.89
40708;BME280;26392;42.696;23.350;2023-02-08T08:35:05;97152.63;;;-2.66;78.20
40708;BME280;26392;42.696;23.350;2023-02-08T08:37:31;97156.34;;;-2.89;79.77
40708;BME280;26392;42.696;23.350;2023-02-08T08:39:56;97154.38;;;-2.76;80.71
40708;BME280;26392;42.696;23.350;2023-02-08T08:42:22;97149.50;;;-2.71;80.34
40708;BME280;26392;42.696;23.350;2023-02-08T08:44:48;97160.06;;;-2.81;79.99
40708;BME280;26392;42.696;23.350;2023-02-08T08:47:13;97153.34;;;-2.64;79.60
40708;BME280;26392;42.696;23.350;2023-02-08T08:49:38;97169.91;;;-2.49;77.88
40708;BME280;26392;42.696;23.350;2023-02-08T08:52:04;97165.22;;;-2.36;77.03
40708;BME280;26392;42.696;23.350;2023-02-08T08:54:32;97171.59;;;-2.27;74.92
40708;BME280;26392;42.696;23.350;2023-02-08T08:56:58;97167.38;;;-2.09;72.74
40708;BME280;26392;42.696;23.350;2023-02-08T08:59:23;97168.44;;;-2.21;72.24
40708;BME280;26392;42.696;23.350;2023-02-08T09:01:49;97170.94;;;-1.98;71.58
40708;BME280;26392;42.696;23.350;2023-02-08T09:04:14;97173.81;;;-1.90;70.80
40708;BME280;26392;42.696;23.350;2023-02-08T09:06:40;97171.31;;;-1.82;69.54
40708;BME280;26392;42.696;23.350;2023-02-08T09:09:05;97172.09;;;-1.91;66.63
40708;BME280;26392;42.696;23.350;2023-02-08T09:11:31;97180.19;;;-1.82;66.16
40708;BME280;26392;42.696;23.350;2023-02-08T09:13:57;97184.34;;;-1.89;66.24
40708;BME280;26392;42.696;23.350;2023-02-08T09:16:24;97186.00;;;-1.97;66.68
40708;BME280;26392;42.696;23.350;2023-02-08T09:18:49;97187.56;;;-2.16;67.77
40708;BME280;26392;42.696;23.350;2023-02-08T09:21:17;97182.09;;;-2.14;68.74
40708;BME280;26392;42.696;23.350;2023-02-08T09:23:43;97184.56;;;-2.22;69.86
40708;BME280;26392;42.696;23.350;2023-02-08T09:26:12;97188.44;;;-2.15;70.29
40708;BME280;26392;42.696;23.350;2023-02-08T09:28:38;97178.44;;;-2.34;70.25
40708;BME280;26392;42.696;23.350;2023-02-08T09:33:37;97188.94;;;-2.00;70.69
40708;BME280;26392;42.696;23.350;2023-02-08T09:36:03;97194.78;;;-1.86;70.76
40708;BME280;26392;42.696;23.350;2023-02-08T09:38:29;97192.75;;;-1.93;68.75
40708;BME280;26392;42.696;23.350;2023-02-08T09:46:26;97174.41;;;-1.46;66.81
40708;BME280;26392;42.696;23.350;2023-02-08T09:48:55;97169.91;;;-1.55;67.44
40708;BME280;26392;42.696;23.350;2023-02-08T09:54:06;97170.16;;;-1.18;66.62
40708;BME280;26392;42.696;23.350;2023-02-08T09:56:35;97164.41;;;-1.04;65.54
40708;BME280;26392;42.696;23.350;2023-02-08T09:59:05;97163.31;;;-0.82;64.43
40708;BME280;26392;42.696;23.350;2023-02-08T10:01:33;97166.47;;;-0.67;63.36
40708;BME280;26392;42.696;23.350;2023-02-08T10:04:10;97163.06;;;-0.50;62.45
40708;BME280;26392;42.696;23.350;2023-02-08T10:06:37;97166.31;;;-0.46;60.42
40708;BME280;26392;42.696;23.350;2023-02-08T10:09:05;97156.16;;;-0.33;60.49
40708;BME280;26392;42.696;23.350;2023-02-08T10:12:03;97149.78;;;-0.12;58.61
40708;BME280;26392;42.696;23.350;2023-02-08T10:20:23;97151.53;;;-1.39;57.57
40708;BME280;26392;42.696;23.350;2023-02-08T10:28:21;97150.28;;;-1.66;62.25
40708;BME280;26392;42.696;23.350;2023-02-08T10:31:12;97155.59;;;-1.45;62.70
40708;BME280;26392;42.696;23.350;2023-02-08T10:36:21;97162.25;;;-1.70;62.10
40708;BME280;26392;42.696;23.350;2023-02-08T10:38:51;97163.72;;;-1.77;62.38
40708;BME280;26392;42.696;23.350;2023-02-08T10:41:21;97159.28;;;-1.67;62.53
40708;BME280;26392;42.696;23.350;2023-02-08T10:43:53;97161.34;;;-1.80;62.69
40708;BME280;26392;42.696;23.350;2023-02-08T10:46:24;97164.34;;;-1.94;64.03
40708;BME280;26392;42.696;23.350;2023-02-08T10:49:15;97151.09;;;-2.27;65.97
40708;BME280;26392;42.696;23.350;2023-02-08T10:51:44;97162.56;;;-2.15;66.31
40708;BME280;26392;42.696;23.350;2023-02-08T10:54:14;97167.09;;;-2.06;67.89
40708;BME280;26392;42.696;23.350;2023-02-08T10:56:53;97161.44;;;-2.12;67.98
40708;BME280;26392;42.696;23.350;2023-02-08T10:59:34;97149.53;;;-2.29;70.22
40708;BME280;26392;42.696;23.350;2023-02-08T11:02:01;97163.31;;;-2.45;71.97
40708;BME280;26392;42.696;23.350;2023-02-08T11:04:27;97164.94;;;-2.33;72.79
40708;BME280;26392;42.696;23.350;2023-02-08T11:06:53;97182.34;;;-2.38;72.43
40708;BME280;26392;42.696;23.350;2023-02-08T11:11:47;97172.25;;;-2.35;72.92
40708;BME280;26392;42.696;23.350;2023-02-08T11:14:19;97167.63;;;-2.33;73.91
40708;BME280;26392;42.696;23.350;2023-02-08T11:16:55;97170.53;;;-1.94;72.74
40708;BME280;26392;42.696;23.350;2023-02-08T11:19:35;97179.47;;;-1.84;69.93
40708;BME280;26392;42.696;23.350;2023-02-08T11:22:14;97179.53;;;-1.95;69.69
40708;BME280;26392;42.696;23.350;2023-02-08T11:24:40;97178.63;;;-2.05;69.83
40708;BME280;26392;42.696;23.350;2023-02-08T11:32:36;97179.44;;;-2.14;71.64
40708;BME280;26392;42.696;23.350;2023-02-08T11:37:51;97180.41;;;-1.64;66.63
40708;BME280;26392;42.696;23.350;2023-02-08T11:40:20;97179.56;;;-1.24;66.20
40708;BME280;26392;42.696;23.350;2023-02-08T11:42:47;97171.19;;;-1.40;65.66
40708;BME280;26392;42.696;23.350;2023-02-08T11:45:22;97183.75;;;-1.71;68.43
40708;BME280;26392;42.696;23.350;2023-02-08T11:47:49;97201.41;;;-1.80;69.08
40708;BME280;26392;42.696;23.350;2023-02-08T11:50:29;97175.69;;;-1.81;70.26
40708;BME280;26392;42.696;23.350;2023-02-08T11:53:00;97168.47;;;-1.90;71.29
40708;BME280;26392;42.696;23.350;2023-02-08T11:55:30;97177.78;;;-1.85;69.55
40708;BME280;26392;42.696;23.350;2023-02-08T11:58:18;97185.34;;;-1.90;69.25
40708;BME280;26392;42.696;23.350;2023-02-08T12:03:27;97205.41;;;-2.37;70.26
40708;BME280;26392;42.696;23.350;2023-02-08T12:06:32;97186.50;;;-2.45;72.41
40708;BME280;26392;42.696;23.350;2023-02-08T12:18:04;97184.25;;;-2.08;68.39
40708;BME280;26392;42.696;23.350;2023-02-08T12:20:39;97178.66;;;-2.26;67.78
40708;BME280;26392;42.696;23.350;2023-02-08T12:34:03;97172.28;;;-1.83;61.94
40708;BME280;26392;42.696;23.350;2023-02-08T12:36:40;97169.44;;;-1.61;61.65
40708;BME280;26392;42.696;23.350;2023-02-08T12:39:22;97173.47;;;-1.36;60.75
40708;BME280;26392;42.696;23.350;2023-02-08T12:45:33;97178.78;;;-1.05;57.57
40708;BME280;26392;42.696;23.350;2023-02-08T12:53:59;97183.00;;;-1.02;56.76
40708;BME280;26392;42.696;23.350;2023-02-08T12:56:34;97147.13;;;-1.40;56.37
40708;BME280;26392;42.696;23.350;2023-02-08T12:59:01;97179.50;;;-1.43;57.51
40708;BME280;26392;42.696;23.350;2023-02-08T13:01:39;97172.81;;;-1.28;57.09
40708;BME280;26392;42.696;23.350;2023-02-08T13:04:11;97178.59;;;-1.23;56.35
40708;BME280;26392;42.696;23.350;2023-02-08T13:06:41;97180.13;;;-1.30;55.06
40708;BME280;26392;42.696;23.350;2023-02-08T13:17:28;97191.75;;;-1.00;53.65
40708;BME280;26392;42.696;23.350;2023-02-08T13:20:22;97194.28;;;-1.08;53.83
40708;BME280;26392;42.696;23.350;2023-02-08T13:22:51;97195.88;;;-1.27;54.10
40708;BME280;26392;42.696;23.350;2023-02-08T13:25:29;97193.94;;;-1.55;54.81
40708;BME280;26392;42.696;23.350;2023-02-08T13:28:02;97201.69;;;-1.52;55.68
40708;BME280;26392;42.696;23.350;2023-02-08T13:30:28;97205.66;;;-1.47;56.32
40708;BME280;26392;42.696;23.350;2023-02-08T13:32:54;97203.88;;;-1.67;57.51
40708;BME280;26392;42.696;23.350;2023-02-08T13:35:28;97206.66;;;-1.78;58.10
40708;BME280;26392;42.696;23.350;2023-02-08T13:38:05;97212.59;;;-1.96;59.28
40708;BME280;26392;42.696;23.350;2023-02-08T13:40:34;97186.97;;;-1.98;60.15
40708;BME280;26392;42.696;23.350;2023-02-08T13:45:43;97211.41;;;-2.03;59.11
40708;BME280;26392;42.696;23.350;2023-02-08T13:48:15;97214.34;;;-2.06;60.37
40708;BME280;26392;42.696;23.350;2023-02-08T13:50:50;97223.94;;;-2.04;61.58
40708;BME280;26392;42.696;23.350;2023-02-08T13:56:00;97215.97;;;-2.15;62.29
40708;BME280;26392;42.696;23.350;2023-02-08T13:59:09;97210.91;;;-2.18;61.13
40708;BME280;26392;42.696;23.350;2023-02-08T14:01:28;97215.78;;;-2.23;61.21
40708;BME280;26392;42.696;23.350;2023-02-08T14:04:14;97226.25;;;-2.31;60.21
40708;BME280;26392;42.696;23.350;2023-02-08T14:09:22;97217.56;;;-2.44;62.34
40708;BME280;26392;42.696;23.350;2023-02-08T14:12:33;97228.72;;;-2.39;63.91
40708;BME280;26392;42.696;23.350;2023-02-08T14:14:39;97229.69;;;-2.40;64.88
40708;BME280;26392;42.696;23.350;2023-02-08T14:17:24;97226.16;;;-2.41;65.89
40708;BME280;26392;42.696;23.350;2023-02-08T14:20:04;97228.13;;;-2.43;66.86
40708;BME280;26392;42.696;23.350;2023-02-08T14:22:37;97216.41;;;-2.52;67.24
40708;BME280;26392;42.696;23.350;2023-02-08T14:25:14;97218.66;;;-2.47;67.63
40708;BME280;26392;42.696;23.350;2023-02-08T14:27:42;97233.53;;;-2.33;68.15
40708;BME280;26392;42.696;23.350;2023-02-08T14:32:47;97223.78;;;-2.23;67.50
40708;BME280;26392;42.696;23.350;2023-02-08T14:35:26;97236.00;;;-2.41;67.86
40708;BME280;26392;42.696;23.350;2023-02-08T14:40:56;97238.00;;;-2.55;68.89
40708;BME280;26392;42.696;23.350;2023-02-08T14:43:38;97238.38;;;-2.59;68.91
40708;BME280;26392;42.696;23.350;2023-02-08T14:49:11;97236.63;;;-2.81;73.29
40708;BME280;26392;42.696;23.350;2023-02-08T14:51:40;97244.97;;;-2.86;75.58
40708;BME280;26392;42.696;23.350;2023-02-08T14:54:21;97232.03;;;-2.90;76.36
40708;BME280;26392;42.696;23.350;2023-02-08T14:57:00;97241.00;;;-2.92;77.70
40708;BME280;26392;42.696;23.350;2023-02-08T14:59:29;97240.03;;;-2.90;76.38
40708;BME280;26392;42.696;23.350;2023-02-08T15:01:59;97239.41;;;-2.94;75.24
40708;BME280;26392;42.696;23.350;2023-02-08T15:04:26;97244.16;;;-2.98;75.15
40708;BME280;26392;42.696;23.350;2023-02-08T15:07:07;97242.34;;;-2.97;75.12
40708;BME280;26392;42.696;23.350;2023-02-08T15:09:39;97246.47;;;-2.93;74.54
40708;BME280;26392;42.696;23.350;2023-02-08T15:12:14;97254.72;;;-2.96;74.59